sensor_id;sensor_type;location;lat;lon;timestamp;temperature;humidity
17128;DHT22;8679;50.842;4.322;2022-12-10T00:01:22;-0.10;99.90
17128;DHT22;8679;50.842;4.322;2022-12-10T00:03:48;-0.10;99.90
17128;DHT22;8679;50.842;4.322;2022-12-10T00:06:17;-0.20;99.90
17128;DHT22;8679;50.842;4.322;2022-12-10T00:08:43;-0.20;99.90
17128;DHT22;8679;50.842;4.322;2022-12-10T00:11:11;-0.20;99.90
17128;DHT22;8679;50.842;4.322;2022-12-10T00:13:37;-0.20;99.90
17128;DHT22;8679;50.842;4.322;2022-12-10T00:16:05;-0.20;99.90
17128;DHT22;8679;50.842;4.322;2022-12-10T00:18:32;-0.20;99.90
17128;DHT22;8679;50.842;4.322;2022-12-10T00:20:58;-0.20;99.90
17128;DHT22;8679;50.842;4.322;2022-12-10T00:23:24;-0.20;99.90
17128;DHT22;8679;50.842;4.322;2022-12-10T00:25:49;-0.20;99.90
17128;DHT22;8679;50.842;4.322;2022-12-10T00:28:15;-0.20;99.90
17128;DHT22;8679;50.842;4.322;2022-12-10T00:30:41;-0.20;99.90
17128;DHT22;8679;50.842;4.322;2022-12-10T00:33:06;-0.20;99.90
17128;DHT22;8679;50.842;4.322;2022-12-10T00:35:35;-0.20;99.90
17128;DHT22;8679;50.842;4.322;2022-12-10T00:38:02;-0.20;99.90
17128;DHT22;8679;50.842;4.322;2022-12-10T00:40:28;-0.20;99.90
17128;DHT22;8679;50.842;4.322;2022-12-10T00:42:54;-0.20;99.90
17128;DHT22;8679;50.842;4.322;2022-12-10T00:45:19;-0.20;99.90
17128;DHT22;8679;50.842;4.322;2022-12-10T00:47:45;-0.30;99.90
17128;DHT22;8679;50.842;4.322;2022-12-10T00:50:11;-0.30;99.90
17128;DHT22;8679;50.842;4.322;2022-12-10T00:52:36;-0.30;99.90
17128;DHT22;8679;50.842;4.322;2022-12-10T00:55:02;-0.40;99.90
17128;DHT22;8679;50.842;4.322;2022-12-10T00:57:28;-0.30;99.90
17128;DHT22;8679;50.842;4.322;2022-12-10T00:59:54;-0.30;99.90
17128;DHT22;8679;50.842;4.322;2022-12-10T01:02:19;-0.30;99.90
17128;DHT22;8679;50.842;4.322;2022-12-10T01:04:46;-0.30;99.90
17128;DHT22;8679;50.842;4.322;2022-12-10T01:07:11;-0.30;99.90
17128;DHT22;8679;50.842;4.322;2022-12-10T01:09:39;-0.20;99.90
17128;DHT22;8679;50.842;4.322;2022-12-10T01:12:04;-0.20;99.90
17128;DHT22;8679;50.842;4.322;2022-12-10T01:14:33;-0.20;99.90
17128;DHT22;8679;50.842;4.322;2022-12-10T01:17:01;-0.30;99.90
17128;DHT22;8679;50.842;4.322;2022-12-10T01:19:29;-0.20;99.90
17128;DHT22;8679;50.842;4.322;2022-12-10T01:21:55;-0.20;99.90
17128;DHT22;8679;50.842;4.322;2022-12-10T01:24:22;-0.10;99.90
17128;DHT22;8679;50.842;4.322;2022-12-10T01:26:48;-0.10;99.90
17128;DHT22;8679;50.842;4.322;2022-12-10T01:29:14;0.00;99.90
17128;DHT22;8679;50.842;4.322;2022-12-10T01:31:40;-0.10;99.90
17128;DHT22;8679;50.842;4.322;2022-12-10T01:34:07;-0.10;99.90
17128;DHT22;8679;50.842;4.322;2022-12-10T01:36:37;-0.20;99.90
17128;DHT22;8679;50.842;4.322;2022-12-10T01:39:05;-0.20;99.90
17128;DHT22;8679;50.842;4.322;2022-12-10T01:46:50;-0.20;99.90
17128;DHT22;8679;50.842;4.322;2022-12-10T01:49:26;-0.20;99.90
17128;DHT22;8679;50.842;4.322;2022-12-10T01:51:55;-0.30;99.90
17128;DHT22;8679;50.842;4.322;2022-12-10T01:54:26;-0.20;99.90
17128;DHT22;8679;50.842;4.322;2022-12-10T01:57:09;-0.30;99.90
17128;DHT22;8679;50.842;4.322;2022-12-10T01:59:37;-0.20;99.90
17128;DHT22;8679;50.842;4.322;2022-12-10T02:02:11;-0.30;99.90
17128;DHT22;8679;50.842;4.322;2022-12-10T02:15:27;-0.40;99.90
17128;DHT22;8679;50.842;4.322;2022-12-10T02:17:55;-0.50;99.90
17128;DHT22;8679;50.842;4.322;2022-12-10T02:23:17;-0.50;99.90
17128;DHT22;8679;50.842;4.322;2022-12-10T02:30:56;-0.60;99.90
17128;DHT22;8679;50.842;4.322;2022-12-10T02:33:23;-0.60;99.90
17128;DHT22;8679;50.842;4.322;2022-12-10T02:35:50;-0.60;99.90
17128;DHT22;8679;50.842;4.322;2022-12-10T02:38:22;-0.50;99.90
17128;DHT22;8679;50.842;4.322;2022-12-10T02:40:51;-0.50;99.90
17128;DHT22;8679;50.842;4.322;2022-12-10T02:43:17;-0.50;99.90
17128;DHT22;8679;50.842;4.322;2022-12-10T02:45:44;-0.50;99.90
17128;DHT22;8679;50.842;4.322;2022-12-10T02:48:12;-0.30;99.90
17128;DHT22;8679;50.842;4.322;2022-12-10T02:50:39;-0.30;99.90
17128;DHT22;8679;50.842;4.322;2022-12-10T02:53:05;-0.50;99.90
17128;DHT22;8679;50.842;4.322;2022-12-10T02:55:47;-0.50;99.90
17128;DHT22;8679;50.842;4.322;2022-12-10T02:58:28;-0.60;99.90
17128;DHT22;8679;50.842;4.322;2022-12-10T03:01:10;-0.60;99.90
17128;DHT22;8679;50.842;4.322;2022-12-10T03:06:54;-0.60;99.90
17128;DHT22;8679;50.842;4.322;2022-12-10T03:09:35;-0.60;99.90
17128;DHT22;8679;50.842;4.322;2022-12-10T03:12:13;-0.60;99.90
17128;DHT22;8679;50.842;4.322;2022-12-10T03:14:43;-0.60;99.90
17128;DHT22;8679;50.842;4.322;2022-12-10T03:17:10;-0.60;99.90
17128;DHT22;8679;50.842;4.322;2022-12-10T03:19:39;-0.50;99.90
17128;DHT22;8679;50.842;4.322;2022-12-10T03:22:07;-0.60;99.90
17128;DHT22;8679;50.842;4.322;2022-12-10T03:24:35;-0.60;99.90
17128;DHT22;8679;50.842;4.322;2022-12-10T03:27:03;-0.50;99.90
17128;DHT22;8679;50.842;4.322;2022-12-10T03:29:41;-0.60;99.90
17128;DHT22;8679;50.842;4.322;2022-12-10T03:32:09;-0.60;99.90
17128;DHT22;8679;50.842;4.322;2022-12-10T03:34:35;-0.70;99.90
17128;DHT22;8679;50.842;4.322;2022-12-10T03:37:02;-0.70;99.90
17128;DHT22;8679;50.842;4.322;2022-12-10T03:39:28;-0.70;99.90
17128;DHT22;8679;50.842;4.322;2022-12-10T03:41:54;-0.70;99.90
17128;DHT22;8679;50.842;4.322;2022-12-10T03:44:29;-0.70;99.90
17128;DHT22;8679;50.842;4.322;2022-12-10T03:46:55;-0.70;99.90
17128;DHT22;8679;50.842;4.322;2022-12-10T03:49:21;-0.70;99.90
17128;DHT22;8679;50.842;4.322;2022-12-10T03:51:46;-0.70;99.90
17128;DHT22;8679;50.842;4.322;2022-12-10T03:54:12;-0.80;99.90
17128;DHT22;8679;50.842;4.322;2022-12-10T03:56:38;-0.80;99.90
17128;DHT22;8679;50.842;4.322;2022-12-10T03:59:03;-0.70;99.90
17128;DHT22;8679;50.842;4.322;2022-12-10T04:01:29;-0.80;99.90
17128;DHT22;8679;50.842;4.322;2022-12-10T04:03:54;-0.80;99.90
17128;DHT22;8679;50.842;4.322;2022-12-10T04:06:20;-0.70;99.90
17128;DHT22;8679;50.842;4.322;2022-12-10T04:08:47;-0.60;99.90
17128;DHT22;8679;50.842;4.322;2022-12-10T04:11:14;-0.60;99.90
17128;DHT22;8679;50.842;4.322;2022-12-10T04:13:40;-0.60;99.90
17128;DHT22;8679;50.842;4.322;2022-12-10T04:16:26;-0.60;99.90
17128;DHT22;8679;50.842;4.322;2022-12-10T04:18:58;-0.60;99.90
17128;DHT22;8679;50.842;4.322;2022-12-10T04:21:24;-0.60;99.90
17128;DHT22;8679;50.842;4.322;2022-12-10T04:24:10;-0.70;99.90
17128;DHT22;8679;50.842;4.322;2022-12-10T04:26:56;-0.70;99.90
17128;DHT22;8679;50.842;4.322;2022-12-10T04:29:24;-0.70;99.90
17128;DHT22;8679;50.842;4.322;2022-12-10T04:31:51;-0.70;99.90
17128;DHT22;8679;50.842;4.322;2022-12-10T04:34:17;-0.70;99.90
17128;DHT22;8679;50.842;4.322;2022-12-10T04:36:43;-0.80;99.90
17128;DHT22;8679;50.842;4.322;2022-12-10T04:39:09;-0.80;99.90
17128;DHT22;8679;50.842;4.322;2022-12-10T04:41:39;-0.70;99.90
17128;DHT22;8679;50.842;4.322;2022-12-10T04:44:05;-0.70;99.90
17128;DHT22;8679;50.842;4.322;2022-12-10T04:46:31;-0.70;99.90
17128;DHT22;8679;50.842;4.322;2022-12-10T04:48:56;-0.70;99.90
17128;DHT22;8679;50.842;4.322;2022-12-10T04:51:22;-0.70;99.90
17128;DHT22;8679;50.842;4.322;2022-12-10T04:53:48;-0.70;99.90
17128;DHT22;8679;50.842;4.322;2022-12-10T04:56:14;-0.70;99.90
17128;DHT22;8679;50.842;4.322;2022-12-10T04:58:39;-0.70;99.90
17128;DHT22;8679;50.842;4.322;2022-12-10T05:01:07;-0.70;99.90
17128;DHT22;8679;50.842;4.322;2022-12-10T05:03:34;-0.70;99.90
17128;DHT22;8679;50.842;4.322;2022-12-10T05:06:07;-0.70;99.90
17128;DHT22;8679;50.842;4.322;2022-12-10T05:08:34;-0.70;99.90
17128;DHT22;8679;50.842;4.322;2022-12-10T05:11:02;-0.70;99.90
17128;DHT22;8679;50.842;4.322;2022-12-10T05:13:28;-0.70;99.90
17128;DHT22;8679;50.842;4.322;2022-12-10T05:15:53;-0.70;99.90
17128;DHT22;8679;50.842;4.322;2022-12-10T05:18:19;-0.70;99.90
17128;DHT22;8679;50.842;4.322;2022-12-10T05:20:45;-0.70;99.90
17128;DHT22;8679;50.842;4.322;2022-12-10T05:23:10;-0.70;99.90
17128;DHT22;8679;50.842;4.322;2022-12-10T05:26:12;-0.70;99.90
17128;DHT22;8679;50.842;4.322;2022-12-10T05:31:19;-0.70;99.90
17128;DHT22;8679;50.842;4.322;2022-12-10T05:33:46;-0.70;99.90
17128;DHT22;8679;50.842;4.322;2022-12-10T05:36:14;-0.70;99.90
17128;DHT22;8679;50.842;4.322;2022-12-10T05:38:41;-0.60;99.90
17128;DHT22;8679;50.842;4.322;2022-12-10T05:41:11;-0.60;99.90
17128;DHT22;8679;50.842;4.322;2022-12-10T05:43:36;-0.70;99.90
17128;DHT22;8679;50.842;4.322;2022-12-10T05:46:05;-0.70;99.90
17128;DHT22;8679;50.842;4.322;2022-12-10T05:48:32;-0.80;99.90
17128;DHT22;8679;50.842;4.322;2022-12-10T05:50:58;-0.80;99.90
17128;DHT22;8679;50.842;4.322;2022-12-10T05:53:24;-0.80;99.90
17128;DHT22;8679;50.842;4.322;2022-12-10T05:55:50;-0.70;99.90
17128;DHT22;8679;50.842;4.322;2022-12-10T05:58:27;-0.70;99.90
17128;DHT22;8679;50.842;4.322;2022-12-10T06:00:53;-0.80;99.90
17128;DHT22;8679;50.842;4.322;2022-12-10T06:03:18;-0.80;99.90
17128;DHT22;8679;50.842;4.322;2022-12-10T06:05:44;-0.80;99.90
17128;DHT22;8679;50.842;4.322;2022-12-10T06:08:10;-0.80;99.90
17128;DHT22;8679;50.842;4.322;2022-12-10T06:10:36;-0.90;99.90
17128;DHT22;8679;50.842;4.322;2022-12-10T06:13:03;-1.00;99.90
17128;DHT22;8679;50.842;4.322;2022-12-10T06:15:30;-1.00;99.90
17128;DHT22;8679;50.842;4.322;2022-12-10T06:17:56;-1.00;99.90
17128;DHT22;8679;50.842;4.322;2022-12-10T06:20:23;-1.00;99.90
17128;DHT22;8679;50.842;4.322;2022-12-10T06:22:49;-0.90;99.90
17128;DHT22;8679;50.842;4.322;2022-12-10T06:25:15;-1.00;99.90
17128;DHT22;8679;50.842;4.322;2022-12-10T06:27:41;-0.90;99.90
17128;DHT22;8679;50.842;4.322;2022-12-10T06:30:07;-0.90;99.90
17128;DHT22;8679;50.842;4.322;2022-12-10T06:32:33;-0.90;99.90
17128;DHT22;8679;50.842;4.322;2022-12-10T06:34:58;-0.90;99.90
17128;DHT22;8679;50.842;4.322;2022-12-10T06:37:24;-0.80;99.90
17128;DHT22;8679;50.842;4.322;2022-12-10T06:39:51;-0.80;99.90
17128;DHT22;8679;50.842;4.322;2022-12-10T06:42:18;-0.80;99.90
17128;DHT22;8679;50.842;4.322;2022-12-10T06:44:44;-0.80;99.90
17128;DHT22;8679;50.842;4.322;2022-12-10T06:47:09;-0.90;99.90
17128;DHT22;8679;50.842;4.322;2022-12-10T06:49:35;-1.00;99.90
17128;DHT22;8679;50.842;4.322;2022-12-10T06:52:02;-1.00;99.90
17128;DHT22;8679;50.842;4.322;2022-12-10T06:54:28;-1.00;99.90
17128;DHT22;8679;50.842;4.322;2022-12-10T06:56:57;-1.00;99.90
17128;DHT22;8679;50.842;4.322;2022-12-10T06:59:23;-1.10;99.90
17128;DHT22;8679;50.842;4.322;2022-12-10T07:01:49;-1.10;99.90
17128;DHT22;8679;50.842;4.322;2022-12-10T07:04:15;-1.00;99.90
17128;DHT22;8679;50.842;4.322;2022-12-10T07:06:40;-1.10;99.90
17128;DHT22;8679;50.842;4.322;2022-12-10T07:09:06;-1.00;99.90
17128;DHT22;8679;50.842;4.322;2022-12-10T07:11:32;-1.00;99.90
17128;DHT22;8679;50.842;4.322;2022-12-10T07:13:58;-1.00;99.90
17128;DHT22;8679;50.842;4.322;2022-12-10T07:16:27;-0.90;99.90
17128;DHT22;8679;50.842;4.322;2022-12-10T07:18:54;-0.90;99.90
17128;DHT22;8679;50.842;4.322;2022-12-10T07:21:29;-0.90;99.90
17128;DHT22;8679;50.842;4.322;2022-12-10T07:23:57;-0.90;99.90
17128;DHT22;8679;50.842;4.322;2022-12-10T07:26:28;-0.90;99.90
17128;DHT22;8679;50.842;4.322;2022-12-10T07:28:54;-0.90;99.90
17128;DHT22;8679;50.842;4.322;2022-12-10T07:31:21;-1.00;99.90
17128;DHT22;8679;50.842;4.322;2022-12-10T07:33:49;-0.90;99.90
17128;DHT22;8679;50.842;4.322;2022-12-10T07:36:15;-0.80;99.90
17128;DHT22;8679;50.842;4.322;2022-12-10T07:38:41;-0.90;99.90
17128;DHT22;8679;50.842;4.322;2022-12-10T07:41:09;-0.80;99.90
17128;DHT22;8679;50.842;4.322;2022-12-10T07:43:36;-0.80;99.90
17128;DHT22;8679;50.842;4.322;2022-12-10T07:48:38;-0.80;99.90
17128;DHT22;8679;50.842;4.322;2022-12-10T07:51:04;-0.90;99.90
17128;DHT22;8679;50.842;4.322;2022-12-10T07:53:30;-0.90;99.90
17128;DHT22;8679;50.842;4.322;2022-12-10T07:55:56;-0.80;99.90
17128;DHT22;8679;50.842;4.322;2022-12-10T07:58:22;-0.90;99.90
17128;DHT22;8679;50.842;4.322;2022-12-10T08:00:48;-0.90;99.90
17128;DHT22;8679;50.842;4.322;2022-12-10T08:03:14;-0.90;99.90
17128;DHT22;8679;50.842;4.322;2022-12-10T08:05:40;-0.90;99.90
17128;DHT22;8679;50.842;4.322;2022-12-10T08:08:06;-0.90;99.90
17128;DHT22;8679;50.842;4.322;2022-12-10T08:10:38;-1.00;99.90
17128;DHT22;8679;50.842;4.322;2022-12-10T08:13:05;-0.90;99.90
17128;DHT22;8679;50.842;4.322;2022-12-10T08:15:32;-1.00;99.90
17128;DHT22;8679;50.842;4.322;2022-12-10T08:17:59;-1.00;99.90
17128;DHT22;8679;50.842;4.322;2022-12-10T08:20:25;-0.90;99.90
17128;DHT22;8679;50.842;4.322;2022-12-10T08:22:51;-0.90;99.90
17128;DHT22;8679;50.842;4.322;2022-12-10T08:25:17;-0.80;99.90
17128;DHT22;8679;50.842;4.322;2022-12-10T08:27:43;-0.80;99.90
17128;DHT22;8679;50.842;4.322;2022-12-10T08:30:09;-0.90;99.90
17128;DHT22;8679;50.842;4.322;2022-12-10T08:32:34;-0.80;99.90
17128;DHT22;8679;50.842;4.322;2022-12-10T08:35:01;-0.80;99.90
17128;DHT22;8679;50.842;4.322;2022-12-10T08:37:27;-0.80;99.90
17128;DHT22;8679;50.842;4.322;2022-12-10T08:39:54;-0.80;99.90
17128;DHT22;8679;50.842;4.322;2022-12-10T08:42:19;-0.80;99.90
17128;DHT22;8679;50.842;4.322;2022-12-10T08:44:45;-0.70;99.90
17128;DHT22;8679;50.842;4.322;2022-12-10T08:47:10;-0.80;99.90
17128;DHT22;8679;50.842;4.322;2022-12-10T08:49:36;-0.90;99.90
17128;DHT22;8679;50.842;4.322;2022-12-10T08:52:02;-0.90;99.90
17128;DHT22;8679;50.842;4.322;2022-12-10T08:54:27;-0.90;99.90
17128;DHT22;8679;50.842;4.322;2022-12-10T08:56:53;-1.00;99.90
17128;DHT22;8679;50.842;4.322;2022-12-10T08:59:19;-1.00;99.90
17128;DHT22;8679;50.842;4.322;2022-12-10T09:01:46;-0.90;99.90
17128;DHT22;8679;50.842;4.322;2022-12-10T09:04:13;-0.90;99.90
17128;DHT22;8679;50.842;4.322;2022-12-10T09:06:41;-0.80;99.90
17128;DHT22;8679;50.842;4.322;2022-12-10T09:09:06;-0.70;99.90
17128;DHT22;8679;50.842;4.322;2022-12-10T09:11:33;-0.70;99.90
17128;DHT22;8679;50.842;4.322;2022-12-10T09:13:59;-0.80;99.90
17128;DHT22;8679;50.842;4.322;2022-12-10T09:16:35;-0.80;99.90
17128;DHT22;8679;50.842;4.322;2022-12-10T09:19:01;-0.70;99.90
17128;DHT22;8679;50.842;4.322;2022-12-10T09:21:28;-0.70;99.90
17128;DHT22;8679;50.842;4.322;2022-12-10T09:23:57;-0.70;99.90
17128;DHT22;8679;50.842;4.322;2022-12-10T09:26:25;-0.70;99.90
17128;DHT22;8679;50.842;4.322;2022-12-10T09:28:51;-0.60;99.90
17128;DHT22;8679;50.842;4.322;2022-12-10T09:31:18;-0.70;99.90
17128;DHT22;8679;50.842;4.322;2022-12-10T09:33:44;-0.60;99.90
17128;DHT22;8679;50.842;4.322;2022-12-10T09:36:12;-0.60;99.90
17128;DHT22;8679;50.842;4.322;2022-12-10T09:38:40;-0.50;99.90
17128;DHT22;8679;50.842;4.322;2022-12-10T09:44:03;-0.60;99.90
17128;DHT22;8679;50.842;4.322;2022-12-10T09:46:40;-0.60;99.90
17128;DHT22;8679;50.842;4.322;2022-12-10T09:52:05;-0.60;99.90
17128;DHT22;8679;50.842;4.322;2022-12-10T09:54:40;-0.50;99.90
17128;DHT22;8679;50.842;4.322;2022-12-10T09:57:15;-0.40;99.90
17128;DHT22;8679;50.842;4.322;2022-12-10T09:59:44;-0.40;99.90
17128;DHT22;8679;50.842;4.322;2022-12-10T10:05:08;-0.30;99.90
17128;DHT22;8679;50.842;4.322;2022-12-10T10:07:38;-0.30;99.90
17128;DHT22;8679;50.842;4.322;2022-12-10T10:10:22;-0.40;99.90
17128;DHT22;8679;50.842;4.322;2022-12-10T10:12:51;-0.30;99.90
17128;DHT22;8679;50.842;4.322;2022-12-10T10:15:24;-0.30;99.90
17128;DHT22;8679;50.842;4.322;2022-12-10T10:17:52;-0.30;99.90
17128;DHT22;8679;50.842;4.322;2022-12-10T10:20:19;-0.30;99.90
17128;DHT22;8679;50.842;4.322;2022-12-10T10:22:45;-0.30;99.90
17128;DHT22;8679;50.842;4.322;2022-12-10T10:25:15;-0.30;99.90
17128;DHT22;8679;50.842;4.322;2022-12-10T10:27:41;-0.30;99.90
17128;DHT22;8679;50.842;4.322;2022-12-10T10:30:14;-0.20;99.90
17128;DHT22;8679;50.842;4.322;2022-12-10T10:35:09;-0.10;99.90
17128;DHT22;8679;50.842;4.322;2022-12-10T10:37:44;0.00;99.90
17128;DHT22;8679;50.842;4.322;2022-12-10T10:42:47;-0.10;99.90
17128;DHT22;8679;50.842;4.322;2022-12-10T10:45:42;-0.10;99.90
17128;DHT22;8679;50.842;4.322;2022-12-10T10:48:18;0.00;99.90
17128;DHT22;8679;50.842;4.322;2022-12-10T10:50:52;0.00;99.90
17128;DHT22;8679;50.842;4.322;2022-12-10T10:53:30;0.00;99.90
17128;DHT22;8679;50.842;4.322;2022-12-10T10:56:04;0.00;99.90
17128;DHT22;8679;50.842;4.322;2022-12-10T10:58:30;0.10;99.90
17128;DHT22;8679;50.842;4.322;2022-12-10T11:01:03;0.10;99.90
17128;DHT22;8679;50.842;4.322;2022-12-10T11:03:31;0.20;99.90
17128;DHT22;8679;50.842;4.322;2022-12-10T11:05:58;0.20;99.90
17128;DHT22;8679;50.842;4.322;2022-12-10T11:08:26;0.10;99.90
17128;DHT22;8679;50.842;4.322;2022-12-10T11:11:22;0.10;99.90
17128;DHT22;8679;50.842;4.322;2022-12-10T11:13:50;0.20;99.90
17128;DHT22;8679;50.842;4.322;2022-12-10T11:16:18;0.20;99.90
17128;DHT22;8679;50.842;4.322;2022-12-10T11:18:57;0.20;99.90
17128;DHT22;8679;50.842;4.322;2022-12-10T11:21:28;0.30;99.90
17128;DHT22;8679;50.842;4.322;2022-12-10T11:23:55;0.30;99.90
17128;DHT22;8679;50.842;4.322;2022-12-10T11:51:15;0.50;99.90
17128;DHT22;8679;50.842;4.322;2022-12-10T11:56:38;0.50;99.90
17128;DHT22;8679;50.842;4.322;2022-12-10T11:59:16;0.50;99.90
17128;DHT22;8679;50.842;4.322;2022-12-10T12:04:33;0.70;99.90
17128;DHT22;8679;50.842;4.322;2022-12-10T12:12:45;0.70;99.90
17128;DHT22;8679;50.842;4.322;2022-12-10T12:15:18;0.80;99.90
17128;DHT22;8679;50.842;4.322;2022-12-10T12:17:53;0.70;99.90
17128;DHT22;8679;50.842;4.322;2022-12-10T12:20:25;0.80;99.90
17128;DHT22;8679;50.842;4.322;2022-12-10T12:23:18;0.80;99.90
17128;DHT22;8679;50.842;4.322;2022-12-10T12:25:50;0.80;99.90
17128;DHT22;8679;50.842;4.322;2022-12-10T12:28:30;0.70;99.90
17128;DHT22;8679;50.842;4.322;2022-12-10T12:31:08;0.70;99.90
17128;DHT22;8679;50.842;4.322;2022-12-10T12:33:45;0.70;99.90
17128;DHT22;8679;50.842;4.322;2022-12-10T12:36:24;0.80;99.90
17128;DHT22;8679;50.842;4.322;2022-12-10T12:46:56;0.80;99.90
17128;DHT22;8679;50.842;4.322;2022-12-10T12:49:28;0.90;99.90
17128;DHT22;8679;50.842;4.322;2022-12-10T12:52:09;0.90;99.90
17128;DHT22;8679;50.842;4.322;2022-12-10T12:54:42;1.00;99.90
17128;DHT22;8679;50.842;4.322;2022-12-10T12:59:47;1.00;99.90
17128;DHT22;8679;50.842;4.322;2022-12-10T13:05:37;1.00;99.90
17128;DHT22;8679;50.842;4.322;2022-12-10T13:13:41;1.00;99.90
17128;DHT22;8679;50.842;4.322;2022-12-10T13:24:44;1.20;99.90
17128;DHT22;8679;50.842;4.322;2022-12-10T13:30:00;1.20;99.90
17128;DHT22;8679;50.842;4.322;2022-12-10T13:40:26;1.20;99.90
17128;DHT22;8679;50.842;4.322;2022-12-10T13:46:33;1.30;99.90
17128;DHT22;8679;50.842;4.322;2022-12-10T13:49:04;1.30;99.90
17128;DHT22;8679;50.842;4.322;2022-12-10T14:00:36;1.40;99.90
17128;DHT22;8679;50.842;4.322;2022-12-10T14:06:35;1.30;99.90
17128;DHT22;8679;50.842;4.322;2022-12-10T14:08:38;1.40;99.90
17128;DHT22;8679;50.842;4.322;2022-12-10T14:11:13;1.40;99.90
17128;DHT22;8679;50.842;4.322;2022-12-10T14:13:42;1.40;99.90
17128;DHT22;8679;50.842;4.322;2022-12-10T14:16:13;1.40;99.90
17128;DHT22;8679;50.842;4.322;2022-12-10T14:18:42;1.40;99.90
17128;DHT22;8679;50.842;4.322;2022-12-10T14:21:12;1.40;99.90
17128;DHT22;8679;50.842;4.322;2022-12-10T14:23:44;1.40;99.90
17128;DHT22;8679;50.842;4.322;2022-12-10T14:28:54;1.50;99.90
17128;DHT22;8679;50.842;4.322;2022-12-10T14:31:34;1.50;99.90
17128;DHT22;8679;50.842;4.322;2022-12-10T14:34:05;1.50;99.90
17128;DHT22;8679;50.842;4.322;2022-12-10T14:36:39;1.40;99.90
17128;DHT22;8679;50.842;4.322;2022-12-10T14:39:21;1.50;99.90
17128;DHT22;8679;50.842;4.322;2022-12-10T14:41:50;1.50;99.90
17128;DHT22;8679;50.842;4.322;2022-12-10T14:44:18;1.50;99.90
17128;DHT22;8679;50.842;4.322;2022-12-10T14:46:44;1.50;99.90
17128;DHT22;8679;50.842;4.322;2022-12-10T14:49:17;1.50;99.90
17128;DHT22;8679;50.842;4.322;2022-12-10T14:51:43;1.50;99.90
17128;DHT22;8679;50.842;4.322;2022-12-10T14:54:29;1.50;99.90
17128;DHT22;8679;50.842;4.322;2022-12-10T14:57:01;1.50;99.90
17128;DHT22;8679;50.842;4.322;2022-12-10T14:59:59;1.60;99.90
17128;DHT22;8679;50.842;4.322;2022-12-10T15:02:31;1.60;99.90
17128;DHT22;8679;50.842;4.322;2022-12-10T15:04:58;1.60;99.90
17128;DHT22;8679;50.842;4.322;2022-12-10T15:07:30;1.60;99.90
17128;DHT22;8679;50.842;4.322;2022-12-10T15:09:58;1.70;99.90
17128;DHT22;8679;50.842;4.322;2022-12-10T15:12:37;1.70;99.90
17128;DHT22;8679;50.842;4.322;2022-12-10T15:15:23;1.60;99.90
17128;DHT22;8679;50.842;4.322;2022-12-10T15:25:44;1.60;99.90
17128;DHT22;8679;50.842;4.322;2022-12-10T15:28:26;1.60;99.90
17128;DHT22;8679;50.842;4.322;2022-12-10T15:30:57;1.70;99.90
17128;DHT22;8679;50.842;4.322;2022-12-10T15:33:47;1.70;99.90
17128;DHT22;8679;50.842;4.322;2022-12-10T15:38:48;1.60;99.90
17128;DHT22;8679;50.842;4.322;2022-12-10T15:47:07;1.70;99.90
17128;DHT22;8679;50.842;4.322;2022-12-10T15:49:34;1.70;99.90
17128;DHT22;8679;50.842;4.322;2022-12-10T15:52:03;1.60;99.90
17128;DHT22;8679;50.842;4.322;2022-12-10T15:54:36;1.60;99.90
17128;DHT22;8679;50.842;4.322;2022-12-10T15:57:18;1.60;99.90
17128;DHT22;8679;50.842;4.322;2022-12-10T15:59:48;1.70;99.90
17128;DHT22;8679;50.842;4.322;2022-12-10T16:02:42;1.70;99.90
17128;DHT22;8679;50.842;4.322;2022-12-10T16:05:36;1.70;99.90
17128;DHT22;8679;50.842;4.322;2022-12-10T16:08:24;1.60;99.90
17128;DHT22;8679;50.842;4.322;2022-12-10T16:10:54;1.60;99.90
17128;DHT22;8679;50.842;4.322;2022-12-10T16:13:26;1.60;99.90
17128;DHT22;8679;50.842;4.322;2022-12-10T16:16:11;1.70;99.90
17128;DHT22;8679;50.842;4.322;2022-12-10T16:18:38;1.70;99.90
17128;DHT22;8679;50.842;4.322;2022-12-10T16:21:05;1.70;99.90
17128;DHT22;8679;50.842;4.322;2022-12-10T16:23:32;1.70;99.90
17128;DHT22;8679;50.842;4.322;2022-12-10T16:25:58;1.60;99.90
17128;DHT22;8679;50.842;4.322;2022-12-10T16:28:25;1.60;99.90
17128;DHT22;8679;50.842;4.322;2022-12-10T16:30:57;1.60;99.90
17128;DHT22;8679;50.842;4.322;2022-12-10T16:33:25;1.70;99.90
17128;DHT22;8679;50.842;4.322;2022-12-10T16:35:53;1.70;99.90
17128;DHT22;8679;50.842;4.322;2022-12-10T16:38:19;1.60;99.90
17128;DHT22;8679;50.842;4.322;2022-12-10T16:40:46;1.60;99.90
17128;DHT22;8679;50.842;4.322;2022-12-10T16:43:17;1.60;99.90
17128;DHT22;8679;50.842;4.322;2022-12-10T16:45:43;1.60;99.90
17128;DHT22;8679;50.842;4.322;2022-12-10T16:48:09;1.70;99.90
17128;DHT22;8679;50.842;4.322;2022-12-10T16:50:35;1.60;99.90
17128;DHT22;8679;50.842;4.322;2022-12-10T16:55:44;1.60;99.90
17128;DHT22;8679;50.842;4.322;2022-12-10T16:58:11;1.70;99.90
17128;DHT22;8679;50.842;4.322;2022-12-10T17:00:40;1.60;99.90
17128;DHT22;8679;50.842;4.322;2022-12-10T17:03:09;1.60;99.90
17128;DHT22;8679;50.842;4.322;2022-12-10T17:05:42;1.70;99.90
17128;DHT22;8679;50.842;4.322;2022-12-10T17:08:09;1.70;99.90
17128;DHT22;8679;50.842;4.322;2022-12-10T17:10:36;1.70;99.90
17128;DHT22;8679;50.842;4.322;2022-12-10T17:13:22;1.70;99.90
17128;DHT22;8679;50.842;4.322;2022-12-10T17:15:49;1.70;99.90
17128;DHT22;8679;50.842;4.322;2022-12-10T17:18:16;1.70;99.90
17128;DHT22;8679;50.842;4.322;2022-12-10T17:20:44;1.70;99.90
17128;DHT22;8679;50.842;4.322;2022-12-10T17:23:10;1.70;99.90
17128;DHT22;8679;50.842;4.322;2022-12-10T17:25:36;1.70;99.90
17128;DHT22;8679;50.842;4.322;2022-12-10T17:28:02;1.80;99.90
17128;DHT22;8679;50.842;4.322;2022-12-10T17:30:28;1.80;99.90
17128;DHT22;8679;50.842;4.322;2022-12-10T17:32:54;1.80;99.90
17128;DHT22;8679;50.842;4.322;2022-12-10T17:35:20;1.80;99.90
17128;DHT22;8679;50.842;4.322;2022-12-10T17:37:47;1.80;99.90
17128;DHT22;8679;50.842;4.322;2022-12-10T17:40:18;1.80;99.90
17128;DHT22;8679;50.842;4.322;2022-12-10T17:42:46;1.90;99.90
17128;DHT22;8679;50.842;4.322;2022-12-10T17:45:14;1.90;99.90
17128;DHT22;8679;50.842;4.322;2022-12-10T17:47:41;1.90;99.90
17128;DHT22;8679;50.842;4.322;2022-12-10T17:50:28;1.90;99.90
17128;DHT22;8679;50.842;4.322;2022-12-10T17:52:59;1.90;99.90
17128;DHT22;8679;50.842;4.322;2022-12-10T17:55:26;1.90;99.90
17128;DHT22;8679;50.842;4.322;2022-12-10T17:57:52;2.00;99.90
17128;DHT22;8679;50.842;4.322;2022-12-10T18:00:20;2.00;99.90
17128;DHT22;8679;50.842;4.322;2022-12-10T18:02:46;2.00;99.90
17128;DHT22;8679;50.842;4.322;2022-12-10T18:05:12;2.10;99.90
17128;DHT22;8679;50.842;4.322;2022-12-10T18:07:38;2.00;99.90
17128;DHT22;8679;50.842;4.322;2022-12-10T18:10:06;2.00;99.90
17128;DHT22;8679;50.842;4.322;2022-12-10T18:12:33;2.00;99.90
17128;DHT22;8679;50.842;4.322;2022-12-10T18:15:00;2.10;99.90
17128;DHT22;8679;50.842;4.322;2022-12-10T18:17:26;2.10;99.90
17128;DHT22;8679;50.842;4.322;2022-12-10T18:19:51;2.10;99.90
17128;DHT22;8679;50.842;4.322;2022-12-10T18:22:17;2.10;99.90
17128;DHT22;8679;50.842;4.322;2022-12-10T18:24:43;2.10;99.90
17128;DHT22;8679;50.842;4.322;2022-12-10T18:27:11;2.20;99.90
17128;DHT22;8679;50.842;4.322;2022-12-10T18:29:38;2.20;99.90
17128;DHT22;8679;50.842;4.322;2022-12-10T18:32:04;2.20;99.90
17128;DHT22;8679;50.842;4.322;2022-12-10T18:34:30;2.20;99.90
17128;DHT22;8679;50.842;4.322;2022-12-10T18:36:55;2.20;99.90
17128;DHT22;8679;50.842;4.322;2022-12-10T18:39:24;2.20;99.90
17128;DHT22;8679;50.842;4.322;2022-12-10T18:41:51;2.20;99.90
17128;DHT22;8679;50.842;4.322;2022-12-10T18:44:19;2.20;99.90